Time;durP1;ratioP1;P1;durP2;ratioP2;P2;SDS_P1;SDS_P2;PMS_P1;PMS_P2;Temp;Humidity;BMP_temperature;BMP_pressure;BME280_temperature;BME280_humidity;BME280_pressure;Samples;Min_cycle;Max_cycle;Signal;HPM_P1;HPM_P2
2022/04/01 00:01:58;;;;;;;20.05;4.95;;;;;;;15.38;70.73;92878.84;5036485;28;20206;-62
2022/04/01 00:04:24;;;;;;;19.58;5.22;;;;;;;15.27;71.30;92897.41;5053877;28;20174;-62
2022/04/01 00:06:49;;;;;;;12.18;3.70;;;;;;;15.28;70.39;92899.75;5053904;28;20584;-64
2022/04/01 00:09:14;;;;;;;14.27;2.95;;;;;;;14.77;72.90;92884.28;5053953;28;20328;-65
2022/04/01 00:11:40;;;;;;;10.43;3.28;;;;;;;14.55;74.03;92859.91;5054312;28;20189;-64
2022/04/01 00:14:05;;;;;;;9.30;2.13;;;;;;;14.87;72.81;92879.53;5054312;28;20631;-64
2022/04/01 00:16:31;;;;;;;7.97;2.13;;;;;;;14.82;72.99;92873.47;5054144;28;20209;-64
2022/04/01 00:18:57;;;;;;;5.45;1.90;;;;;;;14.80;73.28;92865.19;5054285;28;20231;-63
2022/04/01 00:21:23;;;;;;;6.25;1.70;;;;;;;14.47;74.59;92818.41;5036004;28;20657;-62
2022/04/01 00:23:48;;;;;;;6.07;2.10;;;;;;;14.71;72.75;92871.50;5054023;28;20174;-64
2022/04/01 00:26:14;;;;;;;5.57;1.67;;;;;;;14.38;74.41;92856.19;5054031;28;20198;-62
2022/04/01 00:28:39;;;;;;;5.05;1.67;;;;;;;14.32;74.03;92828.06;5078608;23;20258;-64
2022/04/01 00:31:05;;;;;;;7.50;1.90;;;;;;;14.51;73.90;92834.91;5073348;28;20208;-63
2022/04/01 00:33:31;;;;;;;6.10;1.50;;;;;;;14.76;73.12;92866.56;5074005;28;20184;-62
2022/04/01 00:35:57;;;;;;;5.65;1.70;;;;;;;14.44;73.79;92855.41;5073518;28;20724;-64
2022/04/01 00:38:23;;;;;;;7.43;1.70;;;;;;;14.49;74.08;92842.00;5073701;28;20554;-64
2022/04/01 00:40:51;;;;;;;5.32;1.70;;;;;;;14.62;73.54;92854.78;5073434;28;20212;-64
2022/04/01 00:43:24;;;;;;;8.98;1.48;;;;;;;14.58;73.62;92869.75;5073848;28;20185;-64
2022/04/01 00:45:50;;;;;;;10.00;1.65;;;;;;;14.18;76.02;92845.91;5072985;28;20200;-67
2022/04/01 00:48:17;;;;;;;3.35;1.63;;;;;;;14.29;75.79;92857.34;5072534;28;20181;-64
2022/04/01 00:50:43;;;;;;;4.45;1.40;;;;;;;14.30;75.20;92856.38;5072945;28;20189;-64
2022/04/01 00:53:08;;;;;;;4.93;1.23;;;;;;;14.06;75.91;92862.00;5055197;28;20212;-62
2022/04/01 00:55:34;;;;;;;6.47;1.38;;;;;;;14.11;76.45;92869.88;5072897;28;20755;-62
2022/04/01 00:58:00;;;;;;;6.90;1.67;;;;;;;14.25;75.73;92866.34;5075178;28;20212;-62
2022/04/01 01:00:28;;;;;;;6.77;2.30;;;;;;;14.14;76.68;92862.59;5074583;28;20212;-64
2022/04/01 01:02:54;;;;;;;7.15;1.90;;;;;;;14.45;75.17;92908.09;5073365;28;20666;-65
2022/04/01 01:05:20;;;;;;;9.77;2.30;;;;;;;14.16;75.86;92878.53;5072799;28;20193;-64
2022/04/01 01:07:47;;;;;;;6.50;1.98;;;;;;;14.52;74.36;92898.66;5072179;28;20601;-64
2022/04/01 01:10:15;;;;;;;7.22;2.03;;;;;;;14.42;75.28;92866.78;5072581;28;20263;-63
2022/04/01 01:12:41;;;;;;;10.75;2.55;;;;;;;14.28;75.83;92866.78;5054778;28;20181;-64
2022/04/01 01:15:13;;;;;;;11.07;2.75;;;;;;;14.28;76.26;92869.34;5042169;23;20305;-63
2022/04/01 01:17:39;;;;;;;7.07;2.45;;;;;;;14.29;75.66;92877.78;5052926;28;20177;-63
2022/04/01 01:20:12;;;;;;;6.80;2.00;;;;;;;14.23;75.48;92883.66;5052334;28;20210;-62
2022/04/01 01:22:47;;;;;;;6.65;2.38;;;;;;;14.23;75.95;92878.53;5052426;28;20197;-63
2022/04/01 01:25:13;;;;;;;7.05;1.85;;;;;;;14.24;75.58;92880.91;5034306;28;20190;-61
2022/04/01 01:27:40;;;;;;;11.38;2.40;;;;;;;14.24;75.65;92865.56;5052481;28;20193;-62
2022/04/01 01:30:07;;;;;;;22.35;4.68;;;;;;;14.00;74.29;92908.75;5052704;28;20185;-65
2022/04/01 01:32:34;;;;;;;10.77;2.60;;;;;;;14.27;73.83;92906.09;5052745;28;20190;-64
2022/04/01 01:35:00;;;;;;;12.87;2.80;;;;;;;14.32;74.61;92902.97;5052419;28;20635;-64
2022/04/01 01:37:26;;;;;;;16.00;2.90;;;;;;;14.21;73.17;92923.94;5052328;28;20703;-65
2022/04/01 01:39:51;;;;;;;15.38;4.22;;;;;;;14.27;72.53;92918.88;5052251;28;20217;-62
2022/04/01 01:42:18;;;;;;;21.58;4.20;;;;;;;14.32;71.83;92931.84;5052150;28;20198;-64
2022/04/01 01:44:43;;;;;;;19.02;3.42;;;;;;;14.34;71.79;92895.91;5052278;28;20208;-63
2022/04/01 01:47:09;;;;;;;19.42;4.68;;;;;;;14.28;72.07;92917.91;5052108;28;20233;-62
2022/04/01 01:49:35;;;;;;;28.92;4.57;;;;;;;14.34;71.18;92911.25;5052709;28;20625;-64
2022/04/01 01:54:49;;;;;;;59.20;13.05;;;;;;;15.07;63.27;93046.66;5052312;28;20293;-60
2022/04/01 01:57:17;;;;;;;51.17;11.00;;;;;;;15.23;62.62;93034.47;5033980;28;20209;-65
2022/04/01 01:59:44;;;;;;;53.13;10.38;;;;;;;15.64;60.23;93055.50;5051854;28;20201;-62
2022/04/01 02:02:10;;;;;;;42.28;9.65;;;;;;;15.68;60.51;93064.38;5051853;28;20347;-62
2022/04/01 02:04:37;;;;;;;57.22;11.27;;;;;;;15.82;59.85;93041.09;5052166;28;20221;-64
2022/04/01 02:07:03;;;;;;;55.03;11.23;;;;;;;15.85;59.55;93065.53;5051692;28;20200;-63
2022/04/01 02:09:29;;;;;;;65.18;12.35;;;;;;;15.92;59.27;93051.72;5052409;28;20182;-64
2022/04/01 02:11:55;;;;;;;53.58;11.13;;;;;;;15.91;59.24;93029.66;5033698;28;20190;-62
2022/04/01 02:14:21;;;;;;;51.10;11.48;;;;;;;15.95;58.95;93025.69;5052286;28;20189;-65
2022/04/01 02:16:46;;;;;;;56.90;10.70;;;;;;;15.91;59.26;93009.16;5051793;28;20232;-63
2022/04/01 02:19:13;;;;;;;39.38;11.18;;;;;;;15.97;59.43;92992.16;5051255;28;20190;-64
2022/04/01 02:21:39;;;;;;;65.18;12.07;;;;;;;15.95;59.31;93027.47;5033654;28;20240;-62
2022/04/01 02:24:10;;;;;;;51.53;11.55;;;;;;;15.98;58.91;92989.41;5052227;28;20680;-64
2022/04/01 02:26:36;;;;;;;56.92;10.95;;;;;;;15.99;58.54;92969.69;5051715;28;20204;-64
2022/04/01 02:29:03;;;;;;;54.78;11.27;;;;;;;15.98;58.70;92945.03;5052174;28;20189;-61
2022/04/01 02:31:30;;;;;;;55.00;12.55;;;;;;;15.95;59.01;92963.41;5051649;28;20221;-63
2022/04/01 02:33:56;;;;;;;60.85;11.63;;;;;;;16.01;58.17;92977.16;5051810;28;20193;-63
2022/04/01 02:36:22;;;;;;;48.63;11.20;;;;;;;16.06;58.03;92980.69;5051622;28;20201;-65
2022/04/01 02:38:49;;;;;;;53.05;12.63;;;;;;;16.07;57.64;92982.28;5076984;23;20316;-63
2022/04/01 02:41:15;;;;;;;60.35;11.95;;;;;;;16.11;57.33;93003.94;5071491;28;20217;-63
2022/04/01 02:43:41;;;;;;;64.15;11.50;;;;;;;16.10;57.10;92986.97;5071287;28;20237;-63
2022/04/01 02:46:10;;;;;;;58.28;12.30;;;;;;;16.18;57.22;92978.28;5071503;28;20204;-64
2022/04/01 02:48:35;;;;;;;60.97;12.00;;;;;;;16.15;57.11;92982.03;5053739;28;20189;-61
2022/04/01 02:51:01;;;;;;;62.70;11.23;;;;;;;16.04;58.19;92957.03;5053307;28;20200;-63
2022/04/01 02:53:26;;;;;;;55.83;12.20;;;;;;;16.14;57.19;92965.06;5072071;28;20196;-64
2022/04/01 02:55:52;;;;;;;58.10;11.27;;;;;;;16.16;57.30;92970.00;5071347;28;20220;-62
2022/04/01 02:58:18;;;;;;;58.47;11.93;;;;;;;15.98;57.51;92955.28;5071386;28;20185;-63
2022/04/01 03:00:44;;;;;;;65.10;12.75;;;;;;;16.00;57.34;92937.94;5071160;28;20235;-61
2022/04/01 03:03:09;;;;;;;61.75;12.20;;;;;;;16.05;57.29;92948.38;5071257;28;20185;-64
2022/04/01 03:05:36;;;;;;;70.30;14.55;;;;;;;16.13;56.79;92953.25;5071708;28;20229;-63
2022/04/01 03:08:06;;;;;;;60.15;12.38;;;;;;;16.15;56.50;92969.22;5071716;28;20272;-64
2022/04/01 03:10:33;;;;;;;68.28;13.10;;;;;;;16.17;56.26;92972.38;5053234;28;20197;-64
2022/04/01 03:12:59;;;;;;;64.13;13.63;;;;;;;16.20;56.23;92956.56;5071795;28;20209;-65
2022/04/01 03:15:24;;;;;;;63.55;11.43;;;;;;;16.17;56.20;92982.63;5071181;28;20792;-64
2022/04/01 03:17:50;;;;;;;74.85;12.48;;;;;;;16.09;56.67;92946.97;5071568;28;20189;-60
2022/04/01 03:20:16;;;;;;;67.30;13.60;;;;;;;16.16;56.18;92955.41;5036596;28;20307;-64
2022/04/01 03:22:43;;;;;;;53.22;11.25;;;;;;;16.10;56.20;92958.78;5071401;28;20273;-62
2022/04/01 03:25:18;;;;;;;61.17;12.95;;;;;;;16.17;55.63;92951.84;5071199;28;20181;-62
2022/04/01 03:27:45;;;;;;;53.90;11.57;;;;;;;16.22;55.35;92964.06;5071192;28;20193;-61
2022/04/01 03:30:11;;;;;;;71.10;13.45;;;;;;;16.24;55.21;92965.41;5071022;28;20666;-64
2022/04/01 03:32:40;;;;;;;65.75;13.40;;;;;;;16.19;55.32;92964.47;5074761;28;20261;-62
2022/04/01 03:35:13;;;;;;;62.33;11.98;;;;;;;16.24;55.02;92954.38;5062241;23;20230;-61
2022/04/01 03:37:38;;;;;;;60.17;13.68;;;;;;;16.23;54.86;92970.75;5054578;28;20212;-63
2022/04/01 03:40:05;;;;;;;73.82;12.63;;;;;;;16.30;54.71;92981.78;5054647;28;20233;-65
2022/04/01 03:42:31;;;;;;;67.53;12.00;;;;;;;16.23;55.54;92963.06;5054732;28;20270;-64
2022/04/01 03:45:01;;;;;;;59.78;11.18;;;;;;;16.03;57.35;92926.47;5054010;28;20185;-64
2022/04/01 03:47:41;;;;;;;45.30;10.55;;;;;;;15.84;59.53;92889.72;5054221;28;20190;-64
2022/04/01 03:50:10;;;;;;;43.72;9.75;;;;;;;15.50;62.48;92820.91;5054716;28;20169;-62
2022/04/01 03:52:35;;;;;;;42.58;9.35;;;;;;;15.38;63.44;92827.63;5054115;28;20189;-65
2022/04/01 03:55:07;;;;;;;43.45;10.73;;;;;;;14.72;66.31;92760.53;5052744;28;20180;-64
2022/04/01 03:57:38;;;;;;;40.15;8.45;;;;;;;14.94;65.45;92808.69;5036127;28;20178;-63
2022/04/01 04:00:14;;;;;;;52.53;10.02;;;;;;;14.82;66.39;92786.47;5053973;28;20200;-63
2022/04/01 04:02:44;;;;;;;44.38;9.20;;;;;;;14.28;69.09;92735.66;5054236;28;20193;-64
2022/04/01 04:05:13;;;;;;;34.47;8.98;;;;;;;14.15;70.37;92720.31;5055233;28;20233;-65
2022/04/01 04:07:40;;;;;;;41.40;9.88;;;;;;;14.51;68.13;92761.56;5054080;28;20558;-62
2022/04/01 04:10:06;;;;;;;45.15;9.10;;;;;;;14.57;68.13;92763.31;5054106;28;20203;-62
2022/04/01 04:12:35;;;;;;;44.42;9.73;;;;;;;14.59;67.68;92775.91;5054025;28;20647;-62
2022/04/01 04:15:01;;;;;;;54.67;10.47;;;;;;;14.62;69.38;92750.75;5053912;28;20193;-62
2022/04/01 04:17:36;;;;;;;43.70;10.63;;;;;;;14.80;67.93;92768.00;5053835;28;20644;-62
2022/04/01 04:20:18;;;;;;;59.15;9.82;;;;;;;14.49;71.89;92704.72;5053752;28;20271;-61
2022/04/01 04:23:10;;;;;;;37.50;9.23;;;;;;;14.75;70.68;92799.28;5053732;28;20234;-64
2022/04/01 04:25:37;;;;;;;55.22;10.13;;;;;;;14.59;70.15;92791.25;5053441;28;20202;-63
2022/04/01 04:28:09;;;;;;;52.08;10.27;;;;;;;14.83;68.65;92823.84;5053615;28;20229;-63
2022/04/01 04:30:38;;;;;;;45.33;11.27;;;;;;;14.59;69.92;92789.47;5053609;28;20213;-65
2022/04/01 04:33:06;;;;;;;51.15;10.88;;;;;;;14.31;70.99;92771.03;5053210;28;20182;-64
2022/04/01 04:35:35;;;;;;;39.72;10.15;;;;;;;14.54;70.08;92783.41;5053503;28;20247;-64
2022/04/01 04:38:02;;;;;;;47.05;10.90;;;;;;;14.74;68.78;92810.50;5053669;28;20181;-64
2022/04/01 04:40:28;;;;;;;53.15;9.52;;;;;;;14.92;68.35;92818.34;5053146;28;20212;-64
2022/04/01 04:42:54;;;;;;;48.90;10.60;;;;;;;14.84;69.76;92782.75;5052267;28;20185;-62
2022/04/01 04:45:22;;;;;;;46.35;10.48;;;;;;;14.54;71.21;92753.50;5035402;28;20202;-64
2022/04/01 04:47:48;;;;;;;51.10;10.80;;;;;;;14.77;70.30;92778.63;5053233;28;20198;-62
2022/04/01 04:50:18;;;;;;;52.58;10.88;;;;;;;14.71;70.93;92764.06;5052898;28;20272;-63
2022/04/01 04:52:49;;;;;;;45.50;10.30;;;;;;;14.75;70.76;92780.59;5035051;28;20190;-63
2022/04/01 04:55:17;;;;;;;58.10;11.60;;;;;;;14.74;70.62;92774.72;5053193;28;20675;-64
2022/04/01 04:57:44;;;;;;;49.57;10.27;;;;;;;14.62;70.64;92778.88;5053112;28;20182;-64
2022/04/01 05:00:11;;;;;;;50.63;10.27;;;;;;;14.67;69.92;92807.16;5052937;28;20209;-65
2022/04/01 05:02:58;;;;;;;39.10;9.60;;;;;;;14.69;69.93;92778.81;5052993;28;20705;-64
2022/04/01 05:05:36;;;;;;;50.75;11.18;;;;;;;14.92;69.10;92799.63;5035629;28;20221;-64
2022/04/01 05:08:13;;;;;;;46.78;9.30;;;;;;;14.95;68.46;92820.47;5034946;28;20185;-63
2022/04/01 05:10:52;;;;;;;51.20;10.47;;;;;;;14.84;68.24;92810.09;5053062;28;20201;-63
2022/04/01 05:13:32;;;;;;;42.15;9.00;;;;;;;14.62;69.33;92778.88;5052987;28;20181;-64
2022/04/01 05:16:06;;;;;;;38.28;9.60;;;;;;;14.58;69.63;92764.91;5052923;28;20212;-64
2022/04/01 05:18:40;;;;;;;40.90;8.52;;;;;;;14.73;79.10;92670.81;5035378;28;20198;-64
2022/04/01 05:21:30;;;;;;;45.40;10.15;;;;;;;14.93;71.54;92755.16;5034704;28;20221;-64
2022/04/01 05:24:06;;;;;;;43.88;9.05;;;;;;;14.83;70.94;92768.38;5052875;28;20216;-64
2022/04/01 05:26:40;;;;;;;40.80;9.90;;;;;;;14.44;74.14;92717.34;5019322;23;20229;-63
2022/04/01 05:29:25;;;;;;;40.67;10.00;;;;;;;14.81;70.67;92785.69;5012853;28;20182;-62
2022/04/01 05:32:05;;;;;;;42.05;8.77;;;;;;;14.91;74.40;92714.41;5012876;28;20210;-64
2022/04/01 05:34:43;;;;;;;42.73;9.40;;;;;;;14.91;73.47;92734.88;5032335;28;20171;-63
2022/04/01 05:37:09;;;;;;;50.03;11.55;;;;;;;15.01;72.38;92752.34;5031102;28;20263;-66
2022/04/01 05:39:38;;;;;;;44.85;9.98;;;;;;;15.21;68.94;92804.25;5032557;28;20268;-67
2022/04/01 05:42:07;;;;;;;40.28;9.00;;;;;;;15.06;72.04;92748.22;5032283;28;20189;-63
2022/04/01 05:44:34;;;;;;;38.10;9.52;;;;;;;15.01;73.16;92730.13;5032662;28;20226;-63
2022/04/01 05:47:01;;;;;;;48.67;10.32;;;;;;;15.01;73.38;92740.34;5032199;28;20714;-63
2022/04/01 05:49:26;;;;;;;60.60;10.20;;;;;;;15.20;70.74;92769.41;5033249;28;20178;-63
2022/04/01 05:51:52;;;;;;;52.67;11.02;;;;;;;15.21;69.10;92806.03;5014468;28;20198;-64
2022/04/01 05:54:19;;;;;;;48.47;10.68;;;;;;;15.11;68.99;92781.66;5013917;28;20266;-62
2022/04/01 05:56:49;;;;;;;49.33;10.30;;;;;;;14.88;71.69;92737.88;4998060;28;20232;-63
2022/04/01 05:59:19;;;;;;;55.60;13.13;;;;;;;14.76;72.40;92731.81;5031856;28;20214;-64
2022/04/01 06:01:54;;;;;;;44.90;10.57;;;;;;;15.18;70.67;92773.94;5031865;28;20214;-63
2022/04/01 06:04:47;;;;;;;45.72;10.57;;;;;;;15.24;70.46;92754.44;5031699;28;20170;-64
2022/04/01 06:07:31;;;;;;;50.95;9.45;;;;;;;15.23;69.38;92788.72;5031219;28;20240;-64
2022/04/01 06:10:09;;;;;;;46.35;9.00;;;;;;;15.28;70.15;92755.59;5013852;28;20197;-63
2022/04/01 06:13:02;;;;;;;42.78;9.80;;;;;;;15.49;68.39;92791.97;5032161;28;20643;-63
2022/04/01 06:16:03;;;;;;;55.05;9.38;;;;;;;15.46;70.91;92743.72;5014083;28;20641;-63
2022/04/01 06:18:44;;;;;;;43.63;10.73;;;;;;;15.56;68.23;92790.16;5031600;28;20167;-62
2022/04/01 06:21:15;;;;;;;39.75;9.80;;;;;;;15.54;67.56;92820.31;5032033;28;20241;-63
2022/04/01 06:23:41;;;;;;;48.03;10.48;;;;;;;15.61;68.00;92797.22;5014412;28;20181;-62
2022/04/01 06:26:11;;;;;;;48.70;10.45;;;;;;;15.58;69.91;92757.44;5013765;28;20214;-62
2022/04/01 06:28:55;;;;;;;59.90;9.77;;;;;;;15.80;69.37;92789.41;5031718;28;20169;-62
2022/04/01 06:31:23;;;;;;;42.97;10.20;;;;;;;16.07;66.97;92827.69;5032099;28;20209;-61
2022/04/01 06:34:09;;;;;;;56.63;11.02;;;;;;;16.13;69.55;92771.25;5032322;28;20178;-61
2022/04/01 06:36:39;;;;;;;51.55;10.57;;;;;;;16.32;67.61;92805.41;5032690;28;20237;-63
2022/04/01 06:39:08;;;;;;;48.00;10.93;;;;;;;16.31;65.44;92858.47;5032068;28;20205;-65
2022/04/01 06:41:46;;;;;;;44.75;11.05;;;;;;;16.56;65.94;92841.31;5014173;28;20723;-63
2022/04/01 06:44:12;;;;;;;55.70;11.23;;;;;;;16.66;66.78;92826.25;5031483;28;20231;-62
2022/04/01 06:46:37;;;;;;;41.10;9.63;;;;;;;17.01;63.30;92877.09;5013907;28;20293;-61
2022/04/01 06:49:08;;;;;;;47.13;10.32;;;;;;;17.04;62.11;92882.56;5013543;28;20175;-62
2022/04/01 06:51:38;;;;;;;53.40;10.80;;;;;;;16.99;64.01;92866.25;5013312;28;20222;-61
2022/04/01 06:54:04;;;;;;;46.70;10.23;;;;;;;17.21;61.03;92934.94;5031560;28;20569;-66
2022/04/01 06:56:30;;;;;;;51.60;12.68;;;;;;;17.09;61.95;92838.28;5031979;28;20210;-64
2022/04/01 06:58:56;;;;;;;52.13;10.93;;;;;;;17.12;60.25;92925.94;5031373;28;20265;-65
2022/04/01 07:01:22;;;;;;;38.65;10.07;;;;;;;17.00;59.84;92950.75;5031569;28;20218;-63
2022/04/01 07:03:48;;;;;;;53.10;11.77;;;;;;;16.96;60.70;92848.69;5031320;28;20208;-64
2022/04/01 07:06:13;;;;;;;57.13;10.75;;;;;;;17.26;59.18;92939.44;5033306;28;20209;-65
2022/04/01 07:08:39;;;;;;;47.60;11.07;;;;;;;17.20;59.45;92922.31;5017415;28;20202;-64
2022/04/01 07:11:04;;;;;;;50.50;12.45;;;;;;;17.15;58.81;92919.59;5017899;28;20644;-62
2022/04/01 07:13:30;;;;;;;54.30;13.15;;;;;;;17.52;57.45;92967.47;5035108;28;20252;-64
2022/04/01 07:15:56;;;;;;;52.55;12.63;;;;;;;17.45;58.57;92949.50;5035416;28;20213;-64
2022/04/01 07:18:22;;;;;;;52.15;12.38;;;;;;;17.24;58.97;92903.72;5034936;28;20601;-63
2022/04/01 07:20:47;;;;;;;54.33;12.38;;;;;;;17.70;57.23;92969.25;5034707;28;20213;-64
2022/04/01 07:23:13;;;;;;;53.50;13.32;;;;;;;17.65;57.06;92954.50;5017090;28;20188;-62
2022/04/01 07:25:46;;;;;;;58.78;12.90;;;;;;;17.70;58.96;92898.09;5016511;28;20214;-63
2022/04/01 07:28:11;;;;;;;47.50;12.05;;;;;;;17.89;56.75;92968.28;5035400;28;20601;-65
2022/04/01 07:30:37;;;;;;;54.55;11.73;;;;;;;17.80;57.34;92936.91;5035049;28;20588;-66
2022/04/01 07:33:03;;;;;;;54.17;11.07;;;;;;;17.96;57.30;92933.75;5017001;28;20198;-64
2022/04/01 07:35:30;;;;;;;56.50;12.80;;;;;;;18.15;55.37;92979.03;5034999;28;20636;-64
2022/04/01 07:37:56;;;;;;;50.67;10.25;;;;;;;18.35;54.94;92991.66;5034436;28;20178;-63
2022/04/01 07:40:24;;;;;;;57.83;11.13;;;;;;;18.42;54.57;92993.13;5034394;28;20210;-65
2022/04/01 07:42:50;;;;;;;44.80;11.52;;;;;;;18.60;54.42;92991.56;5034252;28;20190;-63
2022/04/01 07:45:17;;;;;;;60.08;11.40;;;;;;;18.54;53.97;92985.50;5034395;28;20218;-64
2022/04/01 07:47:44;;;;;;;66.43;12.20;;;;;;;18.64;52.87;93001.22;5034582;28;20324;-64
2022/04/01 07:50:12;;;;;;;47.05;10.25;;;;;;;18.57;52.53;93007.41;5000325;28;20187;-63
2022/04/01 07:52:40;;;;;;;48.67;11.60;;;;;;;18.65;52.74;93005.34;5034502;28;20194;-65
2022/04/01 07:55:07;;;;;;;61.25;12.40;;;;;;;18.57;53.62;92955.94;5034536;28;20251;-65
2022/04/01 07:57:33;;;;;;;45.83;10.77;;;;;;;18.93;51.67;93005.53;5016334;28;20232;-66
2022/04/01 07:59:58;;;;;;;57.00;11.95;;;;;;;18.99;51.08;93009.78;5033994;28;20757;-64
2022/04/01 08:02:24;;;;;;;51.03;10.80;;;;;;;19.17;49.21;93066.41;5034111;28;20186;-61
2022/04/01 08:04:49;;;;;;;51.78;10.55;;;;;;;19.26;46.83;93120.97;5034231;28;20183;-62
2022/04/01 08:07:17;;;;;;;60.25;11.45;;;;;;;19.26;42.62;93198.28;5034186;28;20206;-62
2022/04/01 08:09:44;;;;;;;67.43;12.10;;;;;;;19.49;41.47;93205.34;5033869;28;20218;-65
2022/04/01 08:12:10;;;;;;;68.43;12.25;;;;;;;19.56;41.70;93204.25;5015943;28;20212;-65
2022/04/01 08:14:37;;;;;;;53.00;11.45;;;;;;;19.42;41.70;93161.63;5033937;28;20178;-65
2022/04/01 08:17:04;;;;;;;54.13;11.00;;;;;;;19.34;41.96;93169.66;5073732;23;20229;-63
2022/04/01 08:19:31;;;;;;;52.67;11.65;;;;;;;19.47;41.82;93163.53;5053221;28;20186;-64
2022/04/01 08:21:57;;;;;;;53.85;11.88;;;;;;;19.60;41.62;93151.25;5053124;28;20219;-66
2022/04/01 08:24:27;;;;;;;63.17;12.02;;;;;;;19.68;41.78;93143.19;5053197;28;20173;-65
2022/04/01 08:26:53;;;;;;;42.30;11.95;;;;;;;19.80;41.63;93125.94;5053113;28;20684;-65
2022/04/01 08:29:18;;;;;;;52.15;12.25;;;;;;;19.86;41.22;93150.03;5052544;28;20571;-65
2022/04/01 08:31:44;;;;;;;56.33;10.65;;;;;;;20.05;40.96;93149.75;5033001;28;20206;-64
2022/04/01 08:34:10;;;;;;;56.00;11.88;;;;;;;20.29;40.62;93145.38;5035339;28;20192;-63
2022/04/01 08:36:35;;;;;;;60.72;11.57;;;;;;;20.41;40.13;93166.03;5035863;28;20205;-65
2022/04/01 08:39:02;;;;;;;49.22;11.30;;;;;;;20.40;39.78;93170.41;5053149;28;20636;-65
2022/04/01 08:41:28;;;;;;;51.70;10.65;;;;;;;20.27;40.52;93123.38;5035322;28;20221;-65
2022/04/01 08:43:53;;;;;;;57.47;11.05;;;;;;;20.29;40.68;93132.47;5035146;28;20235;-63
2022/04/01 08:46:21;;;;;;;52.45;11.18;;;;;;;20.39;40.61;93127.53;5053326;28;20279;-63
2022/04/01 08:48:48;;;;;;;53.17;11.80;;;;;;;20.56;40.14;93125.03;5053056;28;20260;-65
2022/04/01 08:51:13;;;;;;;55.90;12.07;;;;;;;20.85;39.98;93116.31;5053743;28;20272;-64
2022/04/01 08:53:47;;;;;;;56.03;11.18;;;;;;;20.31;40.69;93119.34;5053347;28;20220;-62
2022/04/01 08:56:18;;;;;;;49.15;10.80;;;;;;;20.18;41.09;93088.59;5053342;28;20213;-65
2022/04/01 08:58:43;;;;;;;61.50;12.23;;;;;;;19.52;42.69;93035.56;5053115;28;20544;-62
2022/04/01 09:01:09;;;;;;;52.47;10.65;;;;;;;19.54;43.31;92992.28;5035109;28;20691;-63
2022/04/01 09:03:35;;;;;;;53.53;10.43;;;;;;;19.84;42.84;92994.72;5053475;28;20181;-64
2022/04/01 09:06:03;;;;;;;48.10;11.02;;;;;;;20.17;41.88;93009.59;5053098;28;20652;-61
2022/04/01 09:08:30;;;;;;;57.72;11.27;;;;;;;20.34;42.09;93029.31;5034828;28;20185;-61
2022/04/01 09:11:01;;;;;;;55.42;11.38;;;;;;;20.60;41.81;93026.25;5034881;28;20206;-62
2022/04/01 09:13:30;;;;;;;51.95;11.52;;;;;;;20.46;41.82;93026.72;5052656;28;20265;-64
2022/04/01 09:15:56;;;;;;;54.78;11.02;;;;;;;20.81;41.83;93022.19;5052588;28;20224;-63
2022/04/01 09:18:37;;;;;;;53.42;11.02;;;;;;;21.32;41.54;93044.56;5052870;28;20256;-64
2022/04/01 09:21:04;;;;;;;47.00;10.05;;;;;;;21.33;40.91;93059.81;5052372;28;20217;-66
2022/04/01 09:23:30;;;;;;;62.63;11.27;;;;;;;20.90;41.03;93016.44;5053404;28;20177;-64
2022/04/01 09:25:55;;;;;;;51.67;12.07;;;;;;;20.90;41.44;93011.28;5052051;28;20761;-64
2022/04/01 09:28:27;;;;;;;47.35;11.02;;;;;;;21.12;41.18;93005.44;5052288;28;20683;-62
2022/04/01 09:31:06;;;;;;;54.10;10.80;;;;;;;21.58;41.40;92993.00;5052450;28;20205;-64
2022/04/01 09:33:52;;;;;;;50.92;9.88;;;;;;;22.08;40.40;93036.91;5052465;28;20636;-61
2022/04/01 09:36:18;;;;;;;47.67;11.45;;;;;;;22.75;39.20;93078.94;5052412;28;20209;-62
2022/04/01 09:39:01;;;;;;;49.13;9.65;;;;;;;23.04;37.48;93126.97;5051998;28;20578;-64
2022/04/01 09:41:31;;;;;;;43.30;11.15;;;;;;;22.03;39.15;93013.56;5052040;28;20236;-63
2022/04/01 09:44:12;;;;;;;56.05;11.13;;;;;;;22.52;38.14;93098.06;5034222;28;20177;-61
2022/04/01 09:46:50;;;;;;;65.28;10.50;;;;;;;22.11;37.91;93098.56;5034391;28;20762;-62
2022/04/01 09:49:39;;;;;;;53.03;11.32;;;;;;;21.75;39.20;93066.16;5052415;28;20663;-63
2022/04/01 09:52:12;;;;;;;47.97;11.07;;;;;;;21.80;39.11;93062.88;5052188;28;20201;-64
2022/04/01 09:54:48;;;;;;;66.32;11.23;;;;;;;22.33;39.16;93047.59;5052036;28;20183;-62
2022/04/01 09:57:15;;;;;;;49.85;10.95;;;;;;;22.25;38.95;93055.78;5034045;28;20304;-63
2022/04/01 09:59:42;;;;;;;49.25;11.00;;;;;;;22.65;38.45;93081.41;5051932;28;20200;-64
2022/04/01 10:02:07;;;;;;;42.17;10.85;;;;;;;23.28;36.92;93137.84;5051763;28;20251;-63
2022/04/01 10:04:33;;;;;;;51.97;11.75;;;;;;;23.50;36.56;93141.22;5032999;28;20194;-64
2022/04/01 10:07:00;;;;;;;56.78;10.98;;;;;;;24.14;36.06;93165.38;5052463;28;20193;-63
2022/04/01 10:09:26;;;;;;;53.88;11.18;;;;;;;24.33;35.09;93205.56;5052206;28;20546;-65
2022/04/01 10:11:52;;;;;;;55.67;12.23;;;;;;;23.97;34.31;93214.84;5054335;28;20194;-62
2022/04/01 10:14:29;;;;;;;51.35;10.80;;;;;;;23.72;35.06;93201.63;5051612;28;20201;-64
2022/04/01 10:16:56;;;;;;;47.00;10.35;;;;;;;23.82;35.61;93146.41;5034021;28;20312;-64
2022/04/01 10:19:32;;;;;;;52.38;11.75;;;;;;;24.66;34.79;93192.28;5051499;28;20431;-65
2022/04/01 10:21:59;;;;;;;44.67;10.82;;;;;;;24.91;33.59;93200.22;5051230;28;20661;-65
2022/04/01 10:24:31;;;;;;;47.17;11.02;;;;;;;25.11;34.03;93193.56;5033503;28;20624;-64
2022/04/01 10:26:59;;;;;;;45.67;11.15;;;;;;;24.90;34.62;93151.88;5052171;28;20706;-61
2022/04/01 10:29:26;;;;;;;43.63;10.13;;;;;;;25.39;33.89;93204.31;5034444;28;20227;-62
2022/04/01 10:31:55;;;;;;;50.47;10.13;;;;;;;25.25;33.57;93195.41;5051691;28;20233;-64
2022/04/01 10:34:25;;;;;;;51.97;10.65;;;;;;;25.54;33.88;93172.38;5051624;28;20177;-64
2022/04/01 10:37:00;;;;;;;53.90;12.52;;;;;;;25.40;33.31;93176.47;5052007;28;20217;-63
2022/04/01 10:39:28;;;;;;;42.28;10.48;;;;;;;25.68;33.46;93191.66;5059774;28;20169;-65
2022/04/01 10:42:11;;;;;;;51.08;11.05;;;;;;;25.77;33.07;93205.75;5052694;28;20735;-61
2022/04/01 10:44:48;;;;;;;58.30;12.18;;;;;;;26.48;31.06;93279.59;5055388;28;20180;-65
2022/04/01 10:47:14;;;;;;;48.03;11.02;;;;;;;25.77;32.78;93192.75;5055435;28;20246;-62
2022/04/01 10:52:24;;;;;;;51.10;12.15;;;;;;;26.19;31.27;93234.22;5055307;28;20200;-63
2022/04/01 10:55:06;;;;;;;45.38;10.23;;;;;;;26.29;32.57;93169.88;5052917;28;20181;-63
2022/04/01 10:57:44;;;;;;;46.63;11.05;;;;;;;26.37;31.45;93195.41;5054846;28;20184;-64
2022/04/01 11:00:14;;;;;;;54.60;12.25;;;;;;;25.98;31.66;93190.94;5037182;28;20207;-62
2022/04/01 11:02:41;;;;;;;46.13;9.90;;;;;;;25.13;32.51;93157.66;5055101;28;20208;-61
2022/04/01 11:05:24;;;;;;;49.20;9.75;;;;;;;26.16;31.88;93180.03;5055045;28;20169;-64
2022/04/01 11:08:16;;;;;;;37.47;9.75;;;;;;;26.76;31.76;93182.59;5036784;28;20580;-63
2022/04/01 11:11:05;;;;;;;42.85;9.00;;;;;;;25.36;31.03;93165.00;5055388;28;20340;-63
2022/04/01 11:13:30;;;;;;;39.63;7.90;;;;;;;25.78;31.06;93173.47;5036797;28;20193;-61
2022/04/01 11:16:44;;;;;;;32.55;8.20;;;;;;;24.29;31.70;93141.34;5054716;28;20214;-64
2022/04/01 11:19:19;;;;;;;40.70;8.48;;;;;;;24.88;32.11;93098.53;4993499;28;20194;-62
2022/04/01 11:21:47;;;;;;;34.88;8.00;;;;;;;25.00;31.11;93156.31;4993281;28;20226;-66
2022/04/01 11:24:33;;;;;;;36.42;8.43;;;;;;;25.51;30.48;93155.44;5013766;28;20218;-63
2022/04/01 11:27:25;;;;;;;32.28;7.75;;;;;;;26.43;29.91;93194.34;5055113;28;20208;-64
2022/04/01 11:30:13;;;;;;;36.35;8.23;;;;;;;25.42;29.92;93211.66;5027997;28;20717;-63
2022/04/01 11:32:40;;;;;;;40.50;7.80;;;;;;;23.62;32.32;93095.13;5054451;28;20178;-64
2022/04/01 11:35:08;;;;;;;36.13;8.38;;;;;;;23.55;32.36;93124.91;5055980;28;20177;-65
2022/04/01 11:37:42;;;;;;;26.42;8.10;;;;;;;22.87;33.73;93069.22;5036252;28;20689;-64
2022/04/01 11:40:22;;;;;;;34.28;7.90;;;;;;;22.33;35.11;92980.28;5036637;28;20266;-65